Terminal Aerodrome Forecast
Issued by NWS

Home | Current Version | Previous Version | Text Only | Print | Product List | Glossary On
Versions: 1 2 3 4 5 6 7 8 9 10 11 12 13 14 15 16 17 18 19 20 21 22 23 24 25 26 27
054
FTUS43 KDLH 220520
TAFHYR
TAF
KHYR 220520Z 2206/2306 16010KT P6SM VCTS BKN080CB WS020/19045KT
     FM221100 17005KT 4SM BR VCSH SCT015 BKN100
     FM221500 15011KT P6SM SCT020 SCT050
     FM221600 16012KT P6SM SCT045
     FM230100 18009KT P6SM SCT100=

USA.gov is the U.S. government's official web portal to all federal, state and local government web resources and services.